Time;durP1;ratioP1;P1;durP2;ratioP2;P2;SDS_P1;SDS_P2;PMS_P1;PMS_P2;Temp;Humidity;BMP_temperature;BMP_pressure;BME280_temperature;BME280_humidity;BME280_pressure;Samples;Min_cycle;Max_cycle;Signal;HPM_P1;HPM_P2
2022/06/30 03:24:05;;;;;;;;;;;;;;;18.65;66.11;100922.47;4979737;28;1385;-96
2022/06/30 03:31:58;;;;;;;;;;;;;;;18.61;66.10;100933.91;4976935;28;1219;-96
2022/06/30 03:34:25;;;;;;;;;;;;;;;18.59;65.82;100933.38;4975190;28;1281;-96
2022/06/30 03:36:52;;;;;;;;;;;;;;;18.58;65.60;100934.44;4959134;29;1292;-96
2022/06/30 03:39:20;;;;;;;;;;;;;;;18.58;65.72;100937.16;4953440;29;1372;-96
2022/06/30 03:41:47;;;;;;;;;;;;;;;18.56;65.78;100933.91;4954766;29;1506;-96
2022/06/30 03:44:16;;;;;;;;;;;;;;;18.55;65.74;100923.25;4954111;29;1510;-96
2022/06/30 03:46:42;;;;;;;;;;;;;;;18.53;65.84;100928.97;4945934;29;1914;-96
2022/06/30 03:49:09;;;;;;;;;;;;;;;18.52;65.72;100924.59;4953084;29;1230;-96
2022/06/30 03:51:36;;;;;;;;;;;;;;;18.52;65.83;100926.50;4951867;29;1451;-96
2022/06/30 03:54:03;;;;;;;;;;;;;;;18.51;65.71;100925.69;4951188;29;1481;-96
2022/06/30 03:56:30;;;;;;;;;;;;;;;18.49;65.74;100925.13;4945957;29;1307;-96
2022/06/30 03:58:57;;;;;;;;;;;;;;;18.47;65.90;100924.56;4947147;29;1446;-96
2022/06/30 04:01:24;;;;;;;;;;;;;;;18.48;65.48;100923.47;4941219;29;1525;-96
2022/06/30 04:03:50;;;;;;;;;;;;;;;18.46;65.97;100919.38;4944627;29;1553;-96
2022/06/30 04:06:17;;;;;;;;;;;;;;;18.45;65.86;100921.28;4943264;29;1546;-96
2022/06/30 04:08:44;;;;;;;;;;;;;;;18.44;65.81;100911.44;4932193;29;1887;-96
2022/06/30 04:11:10;;;;;;;;;;;;;;;18.44;65.74;100918.81;4935472;29;1441;-96
2022/06/30 04:14:02;;;;;;;;;;;;;;;18.43;65.47;100918.00;4952240;29;1421;-96
2022/06/30 04:16:54;;;;;;;;;;;;;;;18.42;65.92;100921.00;4952916;29;1267;-96
2022/06/30 04:19:46;;;;;;;;;;;;;;;18.39;65.57;100923.16;4959960;29;1269;-96
2022/06/30 04:22:38;;;;;;;;;;;;;;;18.40;65.69;100929.41;4956372;29;1568;-96
2022/06/30 04:25:30;;;;;;;;;;;;;;;18.38;65.76;100928.84;4956736;29;1437;-96
2022/06/30 04:28:22;;;;;;;;;;;;;;;18.36;65.70;100928.31;4951517;29;1939;-96
2022/06/30 04:34:23;;;;;;;;;;;;;;;18.33;65.60;100934.28;4954744;29;1310;-96
2022/06/30 04:37:15;;;;;;;;;;;;;;;18.33;65.77;100931.56;4950236;29;1655;-96
2022/06/30 04:43:16;;;;;;;;;;;;;;;18.29;65.49;100936.69;4949086;29;1275;-96
2022/06/30 04:46:08;;;;;;;;;;;;;;;18.29;65.42;100933.97;4953529;29;1262;-96
2022/06/30 04:49:00;;;;;;;;;;;;;;;18.29;65.66;100936.69;4957013;28;1369;-96
2022/06/30 04:51:52;;;;;;;;;;;;;;;18.27;65.64;100932.63;4949750;28;1899;-96
2022/06/30 04:54:44;;;;;;;;;;;;;;;18.26;65.47;100933.69;4956754;29;1260;-96
2022/06/30 04:57:36;;;;;;;;;;;;;;;18.25;65.40;100934.78;4954009;29;1271;-96
2022/06/30 05:00:28;;;;;;;;;;;;;;;18.24;65.58;100939.41;4949429;29;1425;-96
2022/06/30 05:03:20;;;;;;;;;;;;;;;18.24;65.28;100935.88;4952387;29;1420;-96
2022/06/30 05:06:12;;;;;;;;;;;;;;;18.24;65.54;100920.31;4949240;29;1309;-96
2022/06/30 05:09:04;;;;;;;;;;;;;;;18.22;65.52;100924.41;4951576;29;1938;-96
2022/06/30 05:11:56;;;;;;;;;;;;;;;18.21;65.21;100920.03;4950143;29;1251;-96
2022/06/30 05:14:48;;;;;;;;;;;;;;;18.20;65.67;100921.91;4952644;29;1397;-96
2022/06/30 05:17:40;;;;;;;;;;;;;;;18.21;65.27;100931.75;4951065;29;1294;-96
2022/06/30 05:20:32;;;;;;;;;;;;;;;18.21;65.31;100930.94;4952781;29;1420;-96
2022/06/30 05:23:24;;;;;;;;;;;;;;;18.20;65.45;100924.63;4949802;29;1439;-96
2022/06/30 05:26:30;;;;;;;;;;;;;;;18.20;65.14;100923.81;4950628;29;1381;-96
2022/06/30 05:29:22;;;;;;;;;;;;;;;18.18;65.34;100915.94;4949192;29;1279;-96
2022/06/30 05:32:14;;;;;;;;;;;;;;;18.16;65.41;100916.16;4950433;29;1973;-96
2022/06/30 05:35:06;;;;;;;;;;;;;;;18.16;65.40;100918.91;4956975;28;1378;-96
2022/06/30 05:37:58;;;;;;;;;;;;;;;18.16;65.48;100918.09;4951901;29;1442;-96
2022/06/30 05:40:50;;;;;;;;;;;;;;;18.17;65.09;100908.81;4957923;29;1338;-96
2022/06/30 05:43:42;;;;;;;;;;;;;;;18.15;65.26;100919.19;4943707;29;1349;-96
2022/06/30 05:46:36;;;;;;;;;;;;;;;18.14;65.33;100923.78;4955278;29;1293;-96
2022/06/30 05:49:28;;;;;;;;;;;;;;;18.11;65.36;100921.56;4953740;29;1630;-96
2022/06/30 05:52:19;;;;;;;;;;;;;;;18.12;65.14;100934.16;4939578;29;1126;-96
2022/06/30 05:55:11;;;;;;;;;;;;;;;18.12;65.24;100930.59;4957492;29;1498;-96
2022/06/30 05:58:04;;;;;;;;;;;;;;;18.11;65.10;100935.19;4953746;29;1535;-96
2022/06/30 06:00:55;;;;;;;;;;;;;;;18.11;65.03;100932.47;4951014;29;1556;-96
2022/06/30 06:03:47;;;;;;;;;;;;;;;18.10;65.10;100928.13;4955049;29;1000;-96
2022/06/30 06:06:39;;;;;;;;;;;;;;;18.10;65.24;100924.56;4952788;29;1922;-96
2022/06/30 06:09:31;;;;;;;;;;;;;;;18.10;65.13;100933.56;4957445;29;1423;-96
2022/06/30 06:12:23;;;;;;;;;;;;;;;18.11;64.93;100926.22;4956865;29;1523;-96
2022/06/30 06:15:14;;;;;;;;;;;;;;;18.09;65.14;100922.94;4957545;29;1276;-96
2022/06/30 06:18:06;;;;;;;;;;;;;;;18.09;64.89;100922.94;4952854;29;2019;-96
2022/06/30 06:20:58;;;;;;;;;;;;;;;18.08;64.94;100916.66;4949639;29;1528;-96
2022/06/30 06:23:50;;;;;;;;;;;;;;;18.08;65.14;100921.28;4947448;29;1404;-96
2022/06/30 06:26:42;;;;;;;;;;;;;;;18.08;65.18;100918.56;4956841;29;1256;-96
2022/06/30 06:29:34;;;;;;;;;;;;;;;18.08;65.12;100921.28;4954940;29;1377;-96
2022/06/30 06:32:26;;;;;;;;;;;;;;;18.08;64.89;100921.28;4946870;28;1633;-96
2022/06/30 06:35:18;;;;;;;;;;;;;;;18.07;64.82;100925.91;4953910;29;1337;-96
2022/06/30 06:38:09;;;;;;;;;;;;;;;18.07;64.88;100919.66;4954219;29;1423;-96
2022/06/30 06:41:02;;;;;;;;;;;;;;;18.07;65.11;100920.47;4956160;29;1495;-96
2022/06/30 06:43:54;;;;;;;;;;;;;;;18.08;65.02;100922.09;4955253;29;1595;-96
2022/06/30 06:46:46;;;;;;;;;;;;;;;18.07;64.79;100920.47;4952796;29;1204;-96
2022/06/30 06:49:38;;;;;;;;;;;;;;;18.07;65.09;100911.47;4956086;28;1514;-96
2022/06/30 06:52:29;;;;;;;;;;;;;;;18.07;64.74;100919.66;4955598;28;1583;-96
2022/06/30 06:55:21;;;;;;;;;;;;;;;18.07;64.98;100923.19;4942412;29;1239;-96
2022/06/30 06:58:13;;;;;;;;;;;;;;;18.07;65.01;100923.19;4947851;29;1316;-96
2022/06/30 07:01:06;;;;;;;;;;;;;;;18.09;64.78;100920.22;4947979;29;1482;-96
2022/06/30 07:03:58;;;;;;;;;;;;;;;18.08;64.84;100926.72;4949051;29;1422;-96
2022/06/30 07:06:50;;;;;;;;;;;;;;;18.08;64.92;100924.81;4955059;29;1615;-96
2022/06/30 07:09:42;;;;;;;;;;;;;;;18.08;64.86;100922.09;4954107;28;1887;-96
2022/06/30 07:12:34;;;;;;;;;;;;;;;18.08;64.90;100927.56;4959778;29;1164;-96
2022/06/30 07:15:26;;;;;;;;;;;;;;;18.09;64.87;100923.75;4955203;29;2191;-95
2022/06/30 07:18:18;;;;;;;;;;;;;;;18.10;64.60;100930.03;4956336;28;1446;-94
2022/06/30 07:21:10;;;;;;;;;;;;;;;18.09;64.86;100931.94;4947681;28;1369;-95
2022/06/30 07:24:02;;;;;;;;;;;;;;;18.10;64.77;100935.47;4944716;28;1981;-96
2022/06/30 07:26:54;;;;;;;;;;;;;;;18.09;64.81;100937.38;4940121;29;1992;-96
2022/06/30 07:29:46;;;;;;;;;;;;;;;18.09;64.58;100926.50;4949212;28;2127;-94
2022/06/30 07:32:37;;;;;;;;;;;;;;;18.11;64.69;100934.38;4948474;28;2152;-94
2022/06/30 07:35:29;;;;;;;;;;;;;;;18.12;64.50;100933.31;4946926;29;1997;-96
2022/06/30 07:38:21;;;;;;;;;;;;;;;18.11;64.73;100929.75;4946677;29;1310;-96
2022/06/30 07:41:14;;;;;;;;;;;;;;;18.12;64.73;100933.31;4946530;29;1244;-95
2022/06/30 07:44:06;;;;;;;;;;;;;;;18.11;64.63;100927.03;4945015;29;1203;-96
2022/06/30 07:46:57;;;;;;;;;;;;;;;18.12;64.42;100925.16;4940301;29;1451;-96
2022/06/30 07:49:48;;;;;;;;;;;;;;;18.12;64.47;100927.88;4958184;29;2116;-96
2022/06/30 07:52:40;;;;;;;;;;;;;;;18.13;64.59;100915.88;4940316;29;1327;-96
2022/06/30 07:55:32;;;;;;;;;;;;;;;18.12;64.68;100906.06;4958418;29;1978;-96
2022/06/30 07:58:24;;;;;;;;;;;;;;;18.12;64.40;100906.88;4940159;29;1312;-96
2022/06/30 08:01:18;;;;;;;;;;;;;;;18.13;64.41;100908.53;4942058;29;1238;-96
2022/06/30 08:04:11;;;;;;;;;;;;;;;18.12;64.69;100906.88;4945534;29;1274;-96
2022/06/30 08:07:03;;;;;;;;;;;;;;;18.13;64.55;100899.53;4946172;29;1357;-96
2022/06/30 08:09:55;;;;;;;;;;;;;;;18.15;64.45;100905.53;4946160;29;2278;-96
2022/06/30 08:12:47;;;;;;;;;;;;;;;18.15;64.55;100902.81;4943373;29;1246;-96
2022/06/30 08:15:38;;;;;;;;;;;;;;;18.14;64.39;100899.25;4947202;29;1392;-96
2022/06/30 08:18:30;;;;;;;;;;;;;;;18.15;64.44;100905.53;4939699;29;614;-96
2022/06/30 08:21:22;;;;;;;;;;;;;;;18.16;64.41;100899.00;4943853;29;1218;-96
2022/06/30 08:24:14;;;;;;;;;;;;;;;18.15;64.58;100898.19;4944962;29;2243;-96
2022/06/30 08:27:05;;;;;;;;;;;;;;;18.17;64.41;100889.72;4949710;29;1242;-96
2022/06/30 08:29:57;;;;;;;;;;;;;;;18.19;64.62;100890.28;4939567;29;744;-96
2022/06/30 08:32:49;;;;;;;;;;;;;;;18.20;64.39;100893.84;4939285;29;2015;-96
2022/06/30 08:35:41;;;;;;;;;;;;;;;18.20;64.80;100885.66;4949758;29;1352;-96
2022/06/30 08:38:33;;;;;;;;;;;;;;;18.20;64.68;100888.38;4935737;29;2210;-96
2022/06/30 08:44:34;;;;;;;;;;;;;;;18.21;64.44;100879.97;4935761;29;1263;-96
2022/06/30 08:47:26;;;;;;;;;;;;;;;18.22;64.36;100881.59;4937205;29;1385;-96
2022/06/30 08:50:18;;;;;;;;;;;;;;;18.22;64.45;100878.06;4938157;29;921;-96
2022/06/30 08:53:09;;;;;;;;;;;;;;;18.23;64.70;100877.78;4934052;29;1303;-96
2022/06/30 08:56:01;;;;;;;;;;;;;;;18.24;64.49;100873.97;4934861;29;1940;-96
2022/06/30 08:58:54;;;;;;;;;;;;;;;18.23;64.49;100869.59;4936406;29;1556;-96
2022/06/30 09:01:46;;;;;;;;;;;;;;;18.25;64.53;100866.63;4934196;29;1170;-96
2022/06/30 09:04:37;;;;;;;;;;;;;;;18.26;64.53;100869.06;4923350;29;1150;-96
2022/06/30 09:07:30;;;;;;;;;;;;;;;18.26;64.74;100866.34;4933886;29;1804;-96
2022/06/30 09:10:22;;;;;;;;;;;;;;;18.27;64.78;100859.81;4933458;29;2178;-96
2022/06/30 09:13:14;;;;;;;;;;;;;;;18.28;64.93;100868.81;4934720;29;1235;-96
2022/06/30 09:16:06;;;;;;;;;;;;;;;18.29;64.91;100865.00;4935462;29;1259;-96
2022/06/30 09:18:58;;;;;;;;;;;;;;;18.30;64.75;100870.19;4934506;29;2260;-96
2022/06/30 09:21:50;;;;;;;;;;;;;;;18.31;64.65;100868.28;4937857;29;1204;-96
2022/06/30 09:24:42;;;;;;;;;;;;;;;18.31;64.80;100855.47;4930099;29;1913;-96
2022/06/30 09:27:34;;;;;;;;;;;;;;;18.31;65.00;100863.66;4934969;29;1248;-96
2022/06/30 09:30:26;;;;;;;;;;;;;;;18.32;64.94;100857.13;4935097;29;1307;-96
2022/06/30 09:33:20;;;;;;;;;;;;;;;18.33;64.74;100850.59;4928314;29;1533;-96
2022/06/30 09:36:12;;;;;;;;;;;;;;;18.34;64.95;100849.50;4925926;29;1789;-96
2022/06/30 09:39:03;;;;;;;;;;;;;;;18.35;65.01;100853.03;4919281;29;2009;-96
2022/06/30 09:41:55;;;;;;;;;;;;;;;18.36;64.77;100843.78;4919349;29;728;-96
2022/06/30 09:44:47;;;;;;;;;;;;;;;18.37;64.81;100851.69;4919330;29;697;-96
2022/06/30 09:47:39;;;;;;;;;;;;;;;18.38;65.00;100849.78;4930562;29;1097;-96
2022/06/30 09:50:31;;;;;;;;;;;;;;;18.38;65.09;100841.59;4920880;29;1581;-96
2022/06/30 09:53:23;;;;;;;;;;;;;;;18.39;64.83;100838.63;4930244;29;1630;-96
2022/06/30 09:56:15;;;;;;;;;;;;;;;18.41;64.75;100846.53;4931905;29;1643;-96
2022/06/30 09:59:07;;;;;;;;;;;;;;;18.41;65.32;100835.63;4919143;29;626;-96
2022/06/30 10:02:00;;;;;;;;;;;;;;;18.44;65.08;100837.00;4919172;29;704;-96
2022/06/30 10:04:51;;;;;;;;;;;;;;;18.44;64.95;100837.81;4919280;29;654;-96
2022/06/30 10:07:43;;;;;;;;;;;;;;;18.44;65.14;100832.34;4931333;29;1606;-96
2022/06/30 10:10:35;;;;;;;;;;;;;;;18.45;65.08;100823.09;4927467;29;2210;-96
2022/06/30 10:13:26;;;;;;;;;;;;;;;18.47;65.04;100826.41;4919732;29;693;-96
2022/06/30 10:16:18;;;;;;;;;;;;;;;18.49;65.31;100818.75;4919481;29;645;-96
2022/06/30 10:19:10;;;;;;;;;;;;;;;18.50;65.34;100820.41;4932237;29;739;-96
2022/06/30 10:22:02;;;;;;;;;;;;;;;18.51;65.33;100822.03;4919115;29;709;-96
2022/06/30 10:24:54;;;;;;;;;;;;;;;18.52;65.38;100825.59;4924777;29;1725;-96
2022/06/30 10:27:46;;;;;;;;;;;;;;;18.54;65.14;100832.41;4919307;29;701;-96
2022/06/30 10:30:37;;;;;;;;;;;;;;;18.55;65.29;100830.50;4934007;29;1546;-96
2022/06/30 10:33:29;;;;;;;;;;;;;;;18.57;65.47;100822.88;4930735;29;1569;-96
2022/06/30 10:36:23;;;;;;;;;;;;;;;18.57;65.26;100826.44;4938505;29;1282;-96
2022/06/30 10:39:15;;;;;;;;;;;;;;;18.59;65.45;100818.00;4938314;29;606;-96
2022/06/30 10:42:07;;;;;;;;;;;;;;;18.60;65.58;100816.91;4919116;29;685;-96
2022/06/30 10:44:59;;;;;;;;;;;;;;;18.62;65.34;100817.47;4919126;29;646;-96
2022/06/30 10:47:51;;;;;;;;;;;;;;;18.63;65.33;100816.38;4938862;29;1395;-96
2022/06/30 10:50:43;;;;;;;;;;;;;;;18.65;65.55;100816.09;4940350;29;1453;-96
2022/06/30 10:53:35;;;;;;;;;;;;;;;18.66;65.18;100804.91;4936303;29;2264;-96
2022/06/30 10:56:27;;;;;;;;;;;;;;;18.66;65.26;100810.38;4937317;29;1777;-94
2022/06/30 10:59:19;;;;;;;;;;;;;;;18.67;65.35;100812.00;4933958;29;2233;-95
2022/06/30 11:02:11;;;;;;;;;;;;;;;18.69;65.20;100811.75;4937522;29;1335;-95
2022/06/30 11:05:03;;;;;;;;;;;;;;;18.72;65.42;100805.75;4922604;29;2180;-95
2022/06/30 11:07:55;;;;;;;;;;;;;;;18.73;65.46;100808.22;4928935;29;1996;-95
2022/06/30 11:10:47;;;;;;;;;;;;;;;18.75;65.61;100799.81;4936716;29;1809;-96
2022/06/30 11:13:39;;;;;;;;;;;;;;;18.77;65.59;100805.81;4936540;29;1339;-96
2022/06/30 11:16:31;;;;;;;;;;;;;;;18.79;65.69;100806.34;4936569;29;1363;-95
2022/06/30 11:19:23;;;;;;;;;;;;;;;18.79;65.83;100796.25;4939335;29;1351;-96
2022/06/30 11:22:15;;;;;;;;;;;;;;;18.81;65.68;100799.53;4935677;29;1554;-96
2022/06/30 11:25:07;;;;;;;;;;;;;;;18.84;65.61;100798.19;4934443;29;1961;-96
2022/06/30 11:27:57;;;;;;;;;;;;;;;18.87;65.87;100803.09;4936214;29;1335;-95
2022/06/30 11:30:49;;;;;;;;;;;;;;;18.89;65.62;100792.75;4936460;29;1264;-96
2022/06/30 11:33:40;;;;;;;;;;;;;;;18.91;65.74;100785.09;4921516;29;1193;-96
2022/06/30 11:36:32;;;;;;;;;;;;;;;18.92;65.76;100791.41;4932360;28;1670;-95
2022/06/30 11:39:26;;;;;;;;;;;;;;;18.93;66.08;100791.09;4946898;29;1398;-95
2022/06/30 11:42:18;;;;;;;;;;;;;;;18.91;66.17;100782.34;4940376;29;964;-96
2022/06/30 11:45:10;;;;;;;;;;;;;;;18.93;65.74;100782.09;4952321;29;1500;-94
2022/06/30 11:48:03;;;;;;;;;;;;;;;18.96;65.82;100778.84;4946065;29;1254;-95
2022/06/30 11:50:55;;;;;;;;;;;;;;;18.96;66.07;100767.91;4945889;29;1763;-95
2022/06/30 11:53:46;;;;;;;;;;;;;;;18.97;66.03;100769.53;4944108;29;1897;-95
2022/06/30 11:56:38;;;;;;;;;;;;;;;18.98;65.91;100766.56;4952511;29;2153;-95
2022/06/30 11:59:30;;;;;;;;;;;;;;;19.00;65.95;100756.22;4946880;29;2207;-96
2022/06/30 12:02:22;;;;;;;;;;;;;;;19.03;65.94;100772.03;4951159;29;1247;-96
2022/06/30 12:05:14;;;;;;;;;;;;;;;19.03;65.88;100758.41;4955528;29;1219;-96
2022/06/30 12:08:06;;;;;;;;;;;;;;;19.03;65.74;100761.13;4941678;29;1722;-96
2022/06/30 12:10:57;;;;;;;;;;;;;;;19.05;65.96;100764.38;4948609;29;1192;-96
2022/06/30 12:13:49;;;;;;;;;;;;;;;19.09;66.00;100761.09;4948326;29;1298;-96
2022/06/30 12:16:41;;;;;;;;;;;;;;;19.10;66.11;100763.56;4948593;29;1315;-96
2022/06/30 12:19:32;;;;;;;;;;;;;;;19.14;65.89;100761.13;4942050;29;1162;-96
2022/06/30 12:22:24;;;;;;;;;;;;;;;19.16;65.88;100759.75;4958981;29;637;-96
2022/06/30 12:25:16;;;;;;;;;;;;;;;19.17;66.02;100755.94;4952990;29;1946;-96
2022/06/30 12:28:07;;;;;;;;;;;;;;;19.19;66.16;100750.22;4940727;29;1098;-96
2022/06/30 12:30:59;;;;;;;;;;;;;;;19.21;66.16;100745.31;4945299;29;1698;-96
2022/06/30 12:33:51;;;;;;;;;;;;;;;19.24;66.52;100742.84;4940010;29;1174;-96
2022/06/30 12:36:43;;;;;;;;;;;;;;;19.25;66.46;100733.56;4940050;29;1345;-96
2022/06/30 12:39:35;;;;;;;;;;;;;;;19.26;66.51;100726.16;4951549;29;1671;-96
2022/06/30 12:42:27;;;;;;;;;;;;;;;19.28;66.59;100724.00;4943917;29;1786;-96
2022/06/30 12:45:19;;;;;;;;;;;;;;;19.30;66.59;100727.28;4952966;29;1211;-96
2022/06/30 12:48:11;;;;;;;;;;;;;;;19.32;66.35;100727.81;4958590;29;1114;-96
2022/06/30 12:51:03;;;;;;;;;;;;;;;19.34;66.68;100722.91;4947952;29;1595;-96
2022/06/30 12:53:55;;;;;;;;;;;;;;;19.36;66.64;100717.19;4949045;28;1457;-96
2022/06/30 12:56:50;;;;;;;;;;;;;;;19.37;66.73;100716.88;4949500;29;1453;-96
2022/06/30 12:59:41;;;;;;;;;;;;;;;19.40;66.75;100713.59;4947933;29;1172;-96
2022/06/30 13:02:33;;;;;;;;;;;;;;;19.42;66.72;100722.34;4942541;29;987;-96
2022/06/30 13:05:25;;;;;;;;;;;;;;;19.44;66.52;100728.38;4959770;29;1610;-96
2022/06/30 13:08:17;;;;;;;;;;;;;;;19.47;66.43;100724.25;4957011;29;1460;-96
2022/06/30 13:11:11;;;;;;;;;;;;;;;19.49;66.80;100728.34;4950191;28;1393;-96
2022/06/30 13:14:03;;;;;;;;;;;;;;;19.51;66.89;100722.63;4945246;29;928;-96
2022/06/30 13:16:54;;;;;;;;;;;;;;;19.55;66.55;100720.16;4944357;29;1457;-96
2022/06/30 13:19:46;;;;;;;;;;;;;;;19.56;66.64;100719.03;4958380;29;1275;-96
2022/06/30 13:22:37;;;;;;;;;;;;;;;19.57;66.89;100715.25;4951607;29;1357;-96
2022/06/30 13:25:30;;;;;;;;;;;;;;;19.60;67.02;100711.97;4942101;29;685;-96
2022/06/30 13:28:22;;;;;;;;;;;;;;;19.63;66.67;100706.75;4942180;29;1212;-96
2022/06/30 13:31:15;;;;;;;;;;;;;;;19.65;66.97;100699.13;4959814;29;2002;-96
2022/06/30 13:34:07;;;;;;;;;;;;;;;19.66;66.96;100702.69;4956358;28;1981;-96
2022/06/30 13:36:59;;;;;;;;;;;;;;;19.67;66.87;100702.38;4958329;28;1441;-96
2022/06/30 13:39:53;;;;;;;;;;;;;;;19.71;66.90;100705.41;4956712;29;1473;-96
2022/06/30 13:42:44;;;;;;;;;;;;;;;19.72;67.40;100702.38;4935798;29;1601;-96
2022/06/30 13:45:38;;;;;;;;;;;;;;;19.74;67.33;100702.13;4968117;29;629;-96
2022/06/30 13:48:29;;;;;;;;;;;;;;;19.78;66.97;100696.91;4962425;29;1224;-96
2022/06/30 13:51:21;;;;;;;;;;;;;;;19.81;67.26;100701.81;4944443;29;625;-96
2022/06/30 13:54:13;;;;;;;;;;;;;;;19.84;67.25;100691.16;4955321;29;1357;-96
2022/06/30 13:57:06;;;;;;;;;;;;;;;19.86;67.15;100688.97;4958504;29;1432;-96
2022/06/30 13:59:58;;;;;;;;;;;;;;;19.89;66.99;100684.88;4964032;29;1196;-96
2022/06/30 14:02:49;;;;;;;;;;;;;;;19.93;67.09;100694.94;4961578;29;1142;-96
2022/06/30 14:05:42;;;;;;;;;;;;;;;19.94;66.83;100691.13;4942164;29;708;-96
2022/06/30 14:08:34;;;;;;;;;;;;;;;19.98;67.11;100687.84;4953855;28;1429;-96
2022/06/30 14:30:24;;;;;;;;;;;;;;;20.17;66.47;100675.16;5384770;23;1667;-96
2022/06/30 17:19:41;;;;;;;;;;;;;;;21.45;68.09;100573.75;5780710;23;4573;-96
2022/06/30 17:22:32;;;;;;;;;;;;;;;21.47;67.99;100581.66;4965293;28;3746;-96
2022/06/30 17:25:24;;;;;;;;;;;;;;;21.49;68.15;100579.44;4977421;28;2781;-96
2022/06/30 17:28:16;;;;;;;;;;;;;;;21.50;68.26;100576.44;4964710;28;1123;-95
2022/06/30 17:31:08;;;;;;;;;;;;;;;21.53;68.13;100583.22;4980328;28;2340;-96
2022/06/30 17:34:00;;;;;;;;;;;;;;;21.53;68.26;100584.06;4976500;28;2324;-96
2022/06/30 17:36:52;;;;;;;;;;;;;;;21.56;68.39;100585.41;4972077;28;2310;-96
2022/06/30 17:39:44;;;;;;;;;;;;;;;21.55;68.22;100576.34;4964625;28;1321;-96
2022/06/30 17:42:37;;;;;;;;;;;;;;;21.58;68.36;100582.38;4969868;28;2033;-96
2022/06/30 17:45:29;;;;;;;;;;;;;;;21.60;68.38;100580.97;4979249;28;1783;-96
2022/06/30 17:48:21;;;;;;;;;;;;;;;21.61;68.40;100568.88;4975735;28;2127;-96
2022/06/30 17:51:13;;;;;;;;;;;;;;;21.63;68.28;100577.66;4970691;28;2328;-96
2022/06/30 17:54:05;;;;;;;;;;;;;;;21.65;68.58;100580.06;4971336;28;2421;-96
2022/06/30 17:56:59;;;;;;;;;;;;;;;21.65;68.45;100580.91;4965418;28;3797;-96
2022/06/30 17:59:50;;;;;;;;;;;;;;;21.66;68.45;100577.06;4975983;28;3007;-96
2022/06/30 18:02:42;;;;;;;;;;;;;;;21.68;68.50;100576.78;4970968;28;2920;-96
2022/06/30 18:05:35;;;;;;;;;;;;;;;21.70;68.41;100574.53;4962210;28;2228;-96
2022/06/30 18:11:36;;;;;;;;;;;;;;;21.72;68.48;100578.63;4974485;28;2330;-96
2022/06/30 18:14:28;;;;;;;;;;;;;;;21.72;68.62;100575.88;4977524;28;2263;-96
2022/06/30 18:17:20;;;;;;;;;;;;;;;21.74;68.69;100570.94;4971297;28;2145;-96
2022/06/30 18:20:13;;;;;;;;;;;;;;;21.75;68.58;100569.81;4969760;28;1536;-96
2022/06/30 18:23:04;;;;;;;;;;;;;;;21.75;68.76;100571.75;4969938;28;2283;-96
2022/06/30 18:25:57;;;;;;;;;;;;;;;21.77;68.55;100564.03;4972572;28;2158;-96
2022/06/30 18:28:48;;;;;;;;;;;;;;;21.78;68.66;100565.66;4970390;28;2150;-96
2022/06/30 18:31:40;;;;;;;;;;;;;;;21.78;68.74;100571.97;4973050;28;2316;-96
2022/06/30 18:34:34;;;;;;;;;;;;;;;21.80;68.48;100565.38;4967748;28;1880;-96
2022/06/30 18:37:25;;;;;;;;;;;;;;;21.81;68.70;100561.53;4972677;28;2079;-96
2022/06/30 18:40:16;;;;;;;;;;;;;;;21.81;68.58;100565.06;4959175;28;1559;-96
2022/06/30 18:43:08;;;;;;;;;;;;;;;21.82;68.83;100563.97;4975978;28;633;-96
2022/06/30 18:46:01;;;;;;;;;;;;;;;21.83;68.72;100573.84;4958693;28;1871;-96
2022/06/30 18:48:52;;;;;;;;;;;;;;;21.83;68.77;100565.59;4971860;28;2289;-96
2022/06/30 18:51:44;;;;;;;;;;;;;;;21.84;68.64;100567.22;4969991;28;2083;-96
2022/06/30 18:54:36;;;;;;;;;;;;;;;21.85;68.87;100565.28;4971885;28;1353;-96
2022/06/30 18:57:28;;;;;;;;;;;;;;;21.85;68.97;100565.28;4970272;28;2308;-96
2022/06/30 19:00:21;;;;;;;;;;;;;;;21.85;69.07;100562.56;4960193;28;2106;-96
2022/06/30 19:03:12;;;;;;;;;;;;;;;21.87;68.91;100561.16;4963161;28;1425;-96
2022/06/30 19:06:04;;;;;;;;;;;;;;;21.88;68.65;100570.19;4972888;28;2097;-96
2022/06/30 19:08:56;;;;;;;;;;;;;;;21.88;69.07;100565.50;4967947;28;2059;-96
2022/06/30 19:11:48;;;;;;;;;;;;;;;21.89;68.75;100563.63;4966976;28;2162;-96
2022/06/30 19:14:40;;;;;;;;;;;;;;;21.89;69.11;100575.41;4966333;28;1317;-96
2022/06/30 19:17:32;;;;;;;;;;;;;;;21.89;68.97;100571.84;4966344;28;3419;-96
2022/06/30 19:20:24;;;;;;;;;;;;;;;21.89;68.96;100572.66;4969017;28;2402;-96
2022/06/30 19:23:16;;;;;;;;;;;;;;;21.90;68.91;100571.53;4979115;28;4006;-96
2022/06/30 19:26:08;;;;;;;;;;;;;;;21.91;68.98;100569.59;4960713;28;2349;-96
2022/06/30 19:29:00;;;;;;;;;;;;;;;21.91;69.00;100564.13;4978446;28;2863;-96
2022/06/30 19:31:52;;;;;;;;;;;;;;;21.91;68.93;100570.44;4969450;28;1395;-96
2022/06/30 19:34:44;;;;;;;;;;;;;;;21.92;69.03;100574.00;4976552;28;2338;-96
2022/06/30 19:37:36;;;;;;;;;;;;;;;21.91;68.77;100566.84;4970218;28;1975;-96
2022/06/30 19:40:30;;;;;;;;;;;;;;;21.93;68.94;100572.88;4969549;28;2297;-96
2022/06/30 19:43:21;;;;;;;;;;;;;;;21.91;69.01;100567.69;4976965;28;1596;-96
2022/06/30 19:46:14;;;;;;;;;;;;;;;21.93;69.14;100581.09;4972754;28;1332;-96
2022/06/30 19:49:06;;;;;;;;;;;;;;;21.93;69.02;100581.91;4979272;28;2189;-96
2022/06/30 19:51:58;;;;;;;;;;;;;;;21.93;69.17;100578.34;4970892;28;2336;-96
2022/06/30 19:54:50;;;;;;;;;;;;;;;21.93;68.97;100583.84;4963876;28;1242;-96
2022/06/30 19:57:42;;;;;;;;;;;;;;;21.92;69.06;100588.50;4965438;28;1972;-96
2022/06/30 20:00:34;;;;;;;;;;;;;;;21.94;69.21;100588.19;4978659;28;2320;-96
2022/06/30 20:06:34;;;;;;;;;;;;;;;21.95;69.03;100592.59;4970652;28;4197;-96
2022/06/30 20:12:37;;;;;;;;;;;;;;;21.94;68.88;100588.19;4963404;28;1082;-95
2022/06/30 20:15:28;;;;;;;;;;;;;;;21.95;69.05;100581.63;4967141;28;2258;-96
2022/06/30 20:18:21;;;;;;;;;;;;;;;21.94;68.92;100582.72;4969740;28;1647;-96
2022/06/30 20:21:13;;;;;;;;;;;;;;;21.94;68.96;100591.78;4964894;28;1829;-96
2022/06/30 20:24:05;;;;;;;;;;;;;;;21.94;68.89;100597.25;4976109;28;1396;-96
2022/06/30 20:26:56;;;;;;;;;;;;;;;21.94;68.81;100590.94;4959599;28;2016;-96
2022/06/30 20:29:52;;;;;;;;;;;;;;;21.94;69.08;100591.78;4966676;28;1968;-96
2022/06/30 20:32:43;;;;;;;;;;;;;;;21.94;69.06;100588.19;4971453;28;1111;-96
2022/06/30 20:35:35;;;;;;;;;;;;;;;21.94;68.78;100591.78;4968548;28;2052;-96
2022/06/30 20:38:26;;;;;;;;;;;;;;;21.94;68.82;100585.47;4959637;28;1164;-96
2022/06/30 20:41:32;;;;;;;;;;;;;;;21.93;68.79;100579.16;4974836;28;2211;-96
2022/06/30 20:44:24;;;;;;;;;;;;;;;21.94;68.94;100588.19;4960705;28;2139;-96
2022/06/30 20:47:17;;;;;;;;;;;;;;;21.94;69.01;100577.22;4976180;28;4722;-96
2022/06/30 20:53:17;;;;;;;;;;;;;;;21.93;68.87;100579.16;4962195;28;2123;-96
2022/06/30 20:56:09;;;;;;;;;;;;;;;21.92;68.89;100569.31;4986430;28;2278;-96
2022/06/30 20:59:02;;;;;;;;;;;;;;;21.93;68.95;100583.84;4974925;28;2078;-95
